Time;durP1;ratioP1;P1;durP2;ratioP2;P2;SDS_P1;SDS_P2;PMS_P1;PMS_P2;Temp;Humidity;BMP_temperature;BMP_pressure;BME280_temperature;BME280_humidity;BME280_pressure;Samples;Min_cycle;Max_cycle;Signal;HPM_P1;HPM_P2
2021/09/08 00:01:52;;;;;;;21.93;10.38;;;;;;;8.57;68.41;101435.73;1658631;86;21742;-79
2021/09/08 00:04:58;;;;;;;19.67;10.05;;;;;;;8.59;69.43;101441.39;1658691;86;21189;-79
2021/09/08 00:08:04;;;;;;;22.35;10.55;;;;;;;8.63;69.83;101440.63;1660012;86;21781;-79
2021/09/08 00:11:09;;;;;;;19.90;9.30;;;;;;;8.67;70.37;101436.64;1659556;86;21344;-83
2021/09/08 00:14:14;;;;;;;21.77;10.10;;;;;;;8.69;70.66;101435.98;1659847;86;21730;-79
2021/09/08 00:17:21;;;;;;;24.65;9.88;;;;;;;8.70;70.82;101434.50;1659121;86;21235;-83
2021/09/08 00:20:27;;;;;;;25.88;11.20;;;;;;;8.73;70.71;101443.40;1658693;86;21204;-78
2021/09/08 00:23:33;;;;;;;23.15;10.15;;;;;;;8.71;70.43;101435.36;1659863;86;21216;-82
2021/09/08 00:26:38;;;;;;;27.25;10.50;;;;;;;8.69;70.83;101433.25;1659619;86;21730;-83
2021/09/08 00:29:43;;;;;;;25.57;10.38;;;;;;;8.66;70.89;101435.77;1659892;86;21212;-82
2021/09/08 00:32:50;;;;;;;70.12;18.42;;;;;;;8.64;70.52;101439.63;1658815;86;21355;-82
2021/09/08 00:35:55;;;;;;;66.42;18.65;;;;;;;8.59;70.43;101438.67;1659746;86;21644;-82
2021/09/08 00:39:01;;;;;;;35.60;13.48;;;;;;;8.56;71.32;101443.05;1658646;86;21627;-78
2021/09/08 00:42:18;;;;;;;25.68;11.10;;;;;;;8.54;72.17;101441.45;1659125;86;21885;-78
2021/09/08 00:45:23;;;;;;;28.60;11.33;;;;;;;8.52;72.71;101440.73;1658572;86;21312;-82
2021/09/08 00:48:28;;;;;;;25.95;11.50;;;;;;;8.50;73.66;101446.80;1659957;86;21369;-78
2021/09/08 00:51:34;;;;;;;25.23;10.55;;;;;;;8.49;74.31;101439.12;1659422;86;21930;-78
2021/09/08 00:54:41;;;;;;;33.23;12.10;;;;;;;8.47;73.98;101445.70;1659841;86;21360;-82
2021/09/08 00:57:46;;;;;;;66.92;17.80;;;;;;;8.41;73.98;101447.97;1659210;86;21320;-78
2021/09/08 01:00:53;;;;;;;101.53;22.32;;;;;;;8.37;73.83;101445.14;1630168;88;21227;-82
2021/09/08 01:04:00;;;;;;;33.65;11.60;;;;;;;8.33;73.14;101439.59;1628971;88;21295;-78
2021/09/08 01:07:13;;;;;;;28.25;11.57;;;;;;;8.27;72.78;101442.83;1628705;88;21223;-78
2021/09/08 01:10:18;;;;;;;34.00;11.68;;;;;;;8.22;72.74;101434.19;1630466;88;21825;-82
2021/09/08 01:13:23;;;;;;;30.80;10.85;;;;;;;8.20;72.82;101441.14;1629318;88;21841;-82
2021/09/08 01:16:29;;;;;;;21.35;9.95;;;;;;;8.21;73.74;101433.83;1630147;88;21330;-82
2021/09/08 01:19:35;;;;;;;21.97;10.78;;;;;;;8.17;74.10;101431.86;1630300;88;21303;-78
2021/09/08 01:22:41;;;;;;;26.48;10.43;;;;;;;8.18;74.38;101438.17;1629349;88;21384;-82
2021/09/08 01:25:45;;;;;;;21.82;9.73;;;;;;;8.18;74.38;101435.45;1630326;88;21292;-82
2021/09/08 01:28:51;;;;;;;20.72;9.75;;;;;;;8.20;75.09;101432.97;1629527;88;21829;-78
2021/09/08 01:32:05;;;;;;;22.55;9.48;;;;;;;8.21;74.95;101431.11;1629784;88;21224;-79
2021/09/08 01:35:11;;;;;;;23.45;10.00;;;;;;;8.21;74.87;101428.38;1630301;88;21232;-82
2021/09/08 01:38:16;;;;;;;21.60;9.60;;;;;;;8.18;73.94;101419.95;1630243;88;21299;-78
2021/09/08 01:41:21;;;;;;;21.85;10.48;;;;;;;8.15;73.29;101426.20;1630088;88;21235;-79
2021/09/08 01:44:27;;;;;;;24.50;9.28;;;;;;;8.11;74.10;101422.01;1629346;88;21247;-78
2021/09/08 01:47:33;;;;;;;21.25;8.58;;;;;;;8.08;75.13;101420.90;1630487;88;21330;-79
2021/09/08 01:50:38;;;;;;;14.45;8.20;;;;;;;8.07;75.54;101413.23;1630545;88;21298;-79
2021/09/08 01:53:43;;;;;;;15.25;7.60;;;;;;;8.07;75.80;101420.55;1630559;88;21332;-78
2021/09/08 01:56:48;;;;;;;23.83;8.48;;;;;;;8.06;75.99;101414.23;1630515;88;21861;-82
2021/09/08 01:59:54;;;;;;;17.92;8.10;;;;;;;8.07;76.34;101411.00;1638708;86;21773;-82
2021/09/08 02:03:06;;;;;;;17.05;8.65;;;;;;;8.10;76.70;101421.65;1657342;86;21343;-82
2021/09/08 02:06:35;;;;;;;16.17;8.53;;;;;;;8.11;76.96;101421.50;1657421;86;21368;-82
2021/09/08 02:09:40;;;;;;;21.77;9.20;;;;;;;8.11;77.14;101410.60;1657492;86;21777;-82
2021/09/08 02:12:47;;;;;;;19.23;9.10;;;;;;;8.13;77.53;101415.41;1655995;86;21216;-82
2021/09/08 02:15:53;;;;;;;17.82;8.58;;;;;;;8.13;77.60;101413.19;1656059;86;21249;-82
2021/09/08 02:18:59;;;;;;;17.65;8.58;;;;;;;8.14;77.72;101416.30;1656207;86;21249;-78
2021/09/08 02:22:04;;;;;;;20.82;8.88;;;;;;;8.13;77.87;101418.64;1657371;86;21372;-78
2021/09/08 02:25:09;;;;;;;22.85;9.05;;;;;;;8.14;77.82;101419.03;1657415;86;21669;-82
2021/09/08 02:28:18;;;;;;;20.20;9.85;;;;;;;8.12;77.76;101418.28;1657463;86;21241;-79
2021/09/08 02:31:21;;;;;;;17.48;9.18;;;;;;;8.14;77.39;101419.89;1657402;86;21375;-79
2021/09/08 02:34:26;;;;;;;19.70;7.60;;;;;;;8.14;77.31;101423.11;1657438;86;21331;-79
2021/09/08 02:37:31;;;;;;;17.23;8.28;;;;;;;8.14;77.55;101421.75;1657396;86;21222;-78
2021/09/08 02:40:37;;;;;;;34.80;12.25;;;;;;;8.14;77.66;101414.94;1657458;86;21857;-78
2021/09/08 02:43:44;;;;;;;29.98;14.95;;;;;;;8.12;77.60;101413.69;1657492;86;21302;-82
2021/09/08 02:46:50;;;;;;;31.23;14.03;;;;;;;8.12;77.74;101415.05;1657397;86;21347;-82
2021/09/08 02:49:56;;;;;;;29.60;12.65;;;;;;;8.13;77.90;101417.27;1655988;86;21200;-82
2021/09/08 02:53:01;;;;;;;27.45;12.55;;;;;;;8.12;78.07;101411.47;1655997;86;21264;-78
2021/09/08 02:56:06;;;;;;;32.83;12.07;;;;;;;8.12;78.26;101416.92;1657503;86;21842;-78
2021/09/08 02:59:11;;;;;;;22.85;11.75;;;;;;;8.12;78.42;101415.55;1657471;86;21846;-82
2021/09/08 03:02:17;;;;;;;24.45;11.03;;;;;;;8.11;78.63;101420.14;1657057;86;21352;-79
2021/09/08 03:05:22;;;;;;;21.27;10.43;;;;;;;8.12;78.74;101416.92;1660175;86;21188;-78
2021/09/08 03:08:28;;;;;;;24.05;11.43;;;;;;;8.11;78.85;101412.47;1659914;86;21236;-82
2021/09/08 03:11:34;;;;;;;20.65;9.40;;;;;;;8.11;78.90;101413.33;1658589;86;21231;-82
2021/09/08 03:14:40;;;;;;;19.00;10.18;;;;;;;8.13;78.82;101409.09;1659142;86;21359;-82
2021/09/08 03:17:45;;;;;;;17.55;9.25;;;;;;;8.12;78.85;101410.96;1658976;86;21335;-81
2021/09/08 03:20:50;;;;;;;20.00;8.73;;;;;;;8.11;78.75;101411.97;1659804;86;21310;-82
2021/09/08 03:23:55;;;;;;;18.65;9.68;;;;;;;8.13;78.87;101410.46;1660031;86;21308;-82
2021/09/08 03:27:01;;;;;;;22.30;8.18;;;;;;;8.14;78.93;101411.71;1660048;86;21869;-83
2021/09/08 03:30:07;;;;;;;21.55;8.73;;;;;;;8.19;79.10;101409.45;1659955;86;21328;-79
2021/09/08 03:33:12;;;;;;;15.08;8.50;;;;;;;8.24;79.18;101405.45;1659944;86;21844;-78
2021/09/08 03:36:17;;;;;;;18.75;9.00;;;;;;;8.31;79.25;101413.44;1659802;86;21338;-78
2021/09/08 03:39:22;;;;;;;21.77;8.95;;;;;;;8.36;79.22;101414.80;1657016;86;21284;-78
2021/09/08 03:42:28;;;;;;;22.85;9.70;;;;;;;8.43;78.97;101417.36;1632839;86;21220;-83
2021/09/08 03:45:33;;;;;;;23.92;10.72;;;;;;;8.51;78.78;101417.16;1631846;87;21216;-79
2021/09/08 03:48:39;;;;;;;34.38;13.60;;;;;;;8.60;78.77;101417.20;1633068;88;21227;-83
2021/09/08 03:51:44;;;;;;;31.42;12.20;;;;;;;8.71;78.25;101414.91;1649096;87;21262;-83
2021/09/08 03:54:50;;;;;;;30.32;12.70;;;;;;;8.80;77.86;101409.99;1649001;87;21333;-79
2021/09/08 03:57:55;;;;;;;27.25;12.98;;;;;;;8.89;77.69;101411.00;1651742;86;21323;-82
2021/09/08 04:01:01;;;;;;;26.33;14.18;;;;;;;8.99;77.47;101412.39;1659272;86;21777;-79
2021/09/08 04:04:06;;;;;;;30.30;13.08;;;;;;;9.09;77.28;101410.07;1625085;88;21199;-82
2021/09/08 04:07:11;;;;;;;23.87;11.25;;;;;;;9.21;76.86;101415.75;1612738;88;21321;-83
2021/09/08 04:10:18;;;;;;;18.30;9.48;;;;;;;9.35;76.40;101406.30;1603637;89;21326;-83
2021/09/08 04:13:23;;;;;;;26.20;9.68;;;;;;;9.50;76.01;101408.61;1602028;89;21297;-82
2021/09/08 04:16:28;;;;;;;18.75;8.35;;;;;;;9.64;75.57;101410.91;1600559;88;21404;-82
2021/09/08 04:19:34;;;;;;;13.60;7.62;;;;;;;9.80;74.99;101412.58;1602904;89;21358;-82
2021/09/08 04:22:41;;;;;;;18.75;8.33;;;;;;;9.97;74.39;101414.59;1605299;88;21334;-79
2021/09/08 04:25:46;;;;;;;14.50;7.78;;;;;;;10.12;73.86;101412.27;1602844;88;21333;-78
2021/09/08 04:28:51;;;;;;;23.70;7.95;;;;;;;10.30;73.26;101415.11;1625530;86;21815;-82
2021/09/08 04:31:56;;;;;;;14.55;7.35;;;;;;;10.48;72.46;101425.64;1609918;88;21267;-82
2021/09/08 04:35:01;;;;;;;18.48;7.70;;;;;;;10.65;71.83;101425.38;1617084;88;21318;-82
2021/09/08 04:38:08;;;;;;;19.95;7.87;;;;;;;10.82;71.19;101421.00;1603621;88;21827;-82
2021/09/08 04:41:12;;;;;;;12.50;7.53;;;;;;;10.96;70.61;101419.61;1613317;87;21342;-78
2021/09/08 04:44:19;;;;;;;17.10;8.50;;;;;;;11.10;69.58;101423.72;1612747;88;21835;-82
2021/09/08 04:47:24;;;;;;;15.25;7.45;;;;;;;11.21;68.72;101416.69;1609845;88;21271;-79
2021/09/08 04:50:30;;;;;;;15.53;8.40;;;;;;;11.36;67.64;101420.61;1612949;86;21272;-79
2021/09/08 04:53:35;;;;;;;14.78;7.80;;;;;;;11.50;66.45;101415.11;1605107;86;21360;-83
2021/09/08 04:56:40;;;;;;;14.95;7.47;;;;;;;11.64;65.77;101416.45;1623737;88;21375;-83
2021/09/08 04:59:49;;;;;;;16.80;8.00;;;;;;;11.78;64.02;101419.50;1611424;86;21954;-83
2021/09/08 05:02:56;;;;;;;12.75;6.97;;;;;;;11.96;63.63;101425.01;1619035;86;21311;-82
2021/09/08 05:06:07;;;;;;;13.40;6.60;;;;;;;12.13;61.97;101425.12;1638244;85;21254;-82
2021/09/08 05:09:15;;;;;;;15.20;6.35;;;;;;;12.28;60.60;101426.30;1638196;85;21698;-82
2021/09/08 05:12:22;;;;;;;17.17;6.90;;;;;;;12.42;60.09;101414.73;1639742;86;22039;-83
2021/09/08 05:15:28;;;;;;;12.58;5.85;;;;;;;12.58;58.95;101417.22;1641071;85;21272;-82
2021/09/08 05:18:35;;;;;;;12.58;5.58;;;;;;;12.72;57.66;101416.61;1637081;86;21205;-78
2021/09/08 05:21:39;;;;;;;13.72;5.87;;;;;;;12.86;57.18;101416.00;1641626;86;21910;-79
2021/09/08 05:24:44;;;;;;;14.98;6.28;;;;;;;13.02;56.55;101413.30;1640869;85;21887;-81
2021/09/08 05:27:50;;;;;;;18.00;5.58;;;;;;;13.17;56.33;101409.41;1640243;86;21354;-83
2021/09/08 05:30:59;;;;;;;10.75;5.53;;;;;;;13.35;55.48;101412.59;1653670;85;21509;-80
2021/09/08 05:34:03;;;;;;;11.03;5.42;;;;;;;13.49;54.55;101401.80;1634722;85;21200;-79
2021/09/08 05:37:08;;;;;;;11.63;5.78;;;;;;;13.66;53.31;101399.95;1640405;85;21864;-79
2021/09/08 05:40:16;;;;;;;12.10;5.12;;;;;;;13.83;53.21;101403.55;1638989;86;21354;-79
2021/09/08 05:43:21;;;;;;;17.67;6.03;;;;;;;14.01;52.28;101403.39;1639377;86;21314;-82
2021/09/08 05:46:26;;;;;;;18.37;5.80;;;;;;;14.18;52.25;101398.23;1643367;85;21342;-84
2021/09/08 05:49:31;;;;;;;13.93;5.72;;;;;;;14.40;51.91;101400.80;1657892;85;21293;-82
2021/09/08 05:52:39;;;;;;;12.35;5.37;;;;;;;14.57;51.26;101395.60;1609803;87;21347;-83
2021/09/08 05:55:45;;;;;;;12.55;5.90;;;;;;;14.73;50.69;101397.47;1639008;86;21232;-79
2021/09/08 05:58:51;;;;;;;19.25;5.42;;;;;;;14.88;50.48;101393.45;1636910;86;21904;-83
2021/09/08 06:01:56;;;;;;;8.93;5.30;;;;;;;15.06;49.29;101400.09;1637291;85;21227;-83
2021/09/08 06:05:03;;;;;;;8.88;4.40;;;;;;;15.20;48.52;101391.07;1634219;85;21534;-85
2021/09/08 06:08:09;;;;;;;11.03;4.67;;;;;;;15.32;47.13;101395.12;1637315;85;22249;-84
2021/09/08 06:11:16;;;;;;;16.77;4.90;;;;;;;15.47;47.28;101397.95;1633148;85;21223;-83
2021/09/08 06:14:22;;;;;;;8.50;4.92;;;;;;;15.63;46.55;101399.77;1635956;85;21771;-85
2021/09/08 06:17:31;;;;;;;7.22;4.22;;;;;;;15.80;46.58;101399.99;1632701;85;21212;-82
2021/09/08 06:20:37;;;;;;;9.28;3.85;;;;;;;15.98;45.87;101398.30;1636339;86;21880;-81
2021/09/08 06:23:44;;;;;;;8.58;4.00;;;;;;;16.16;44.75;101406.78;1637488;86;21924;-86
2021/09/08 06:26:48;;;;;;;11.78;3.83;;;;;;;16.27;44.22;101396.66;1632505;85;21354;-83
2021/09/08 06:29:53;;;;;;;9.18;3.77;;;;;;;16.39;44.57;101397.94;1633588;85;21637;-83
2021/09/08 06:32:58;;;;;;;8.63;3.85;;;;;;;16.54;43.85;101400.71;1631227;85;21276;-80
2021/09/08 06:36:04;;;;;;;6.12;3.40;;;;;;;16.65;42.71;101402.99;1651007;84;21564;-84
2021/09/08 06:39:09;;;;;;;7.03;3.65;;;;;;;16.74;43.00;101401.89;1635092;85;21216;-83
2021/09/08 06:42:17;;;;;;;8.35;3.40;;;;;;;16.87;42.19;101403.99;1628934;85;21368;-82
2021/09/08 06:45:25;;;;;;;13.10;3.52;;;;;;;17.02;40.47;101403.98;1637024;85;21334;-83
2021/09/08 06:48:31;;;;;;;7.25;3.35;;;;;;;17.13;40.33;101401.27;1631582;85;21264;-82
2021/09/08 06:51:38;;;;;;;7.80;2.90;;;;;;;17.23;40.04;101401.82;1632751;86;21719;-80
2021/09/08 06:54:48;;;;;;;6.42;3.10;;;;;;;17.34;39.12;101407.69;1635110;85;21327;-81
2021/09/08 06:57:55;;;;;;;7.00;3.00;;;;;;;17.41;38.13;101402.75;1635571;86;21311;-80
2021/09/08 07:01:04;;;;;;;9.95;2.70;;;;;;;17.50;37.53;101402.97;1636011;85;21741;-78
2021/09/08 07:04:13;;;;;;;6.45;2.85;;;;;;;17.62;37.54;101396.73;1634412;85;21322;-78
2021/09/08 07:07:21;;;;;;;5.20;2.83;;;;;;;17.71;36.60;101406.30;1634736;85;21239;-80
2021/09/08 07:10:30;;;;;;;10.82;3.60;;;;;;;17.78;36.31;101405.33;1632842;85;21296;-80
2021/09/08 07:13:37;;;;;;;12.50;4.10;;;;;;;17.82;35.55;101403.03;1631622;85;21840;-80
2021/09/08 07:16:46;;;;;;;17.32;3.27;;;;;;;17.87;35.09;101397.76;1633118;85;21533;-84
2021/09/08 07:19:54;;;;;;;12.05;3.12;;;;;;;17.95;35.32;101394.86;1633519;86;21821;-83
2021/09/08 07:23:00;;;;;;;12.45;3.37;;;;;;;18.04;34.35;101388.67;1637732;85;21362;-81
2021/09/08 07:26:04;;;;;;;12.05;3.17;;;;;;;18.03;34.18;101386.96;1629219;85;21908;-79
2021/09/08 07:29:12;;;;;;;4.72;2.45;;;;;;;18.01;33.95;101388.52;1631918;85;21712;-77
2021/09/08 07:32:20;;;;;;;10.32;3.12;;;;;;;18.01;34.09;101389.91;1631148;86;21335;-76
2021/09/08 07:35:28;;;;;;;9.45;3.30;;;;;;;18.03;33.73;101382.81;1627169;85;21385;-75
2021/09/08 07:38:33;;;;;;;7.62;3.00;;;;;;;18.10;33.74;101388.71;1627503;85;21206;-75
2021/09/08 07:41:40;;;;;;;8.25;3.33;;;;;;;18.22;33.59;101385.42;1631483;85;21760;-78
2021/09/08 07:44:47;;;;;;;7.20;2.67;;;;;;;18.34;33.14;101389.33;1630533;85;21189;-74
2021/09/08 07:47:53;;;;;;;6.55;2.72;;;;;;;18.44;32.90;101391.75;1630319;85;21256;-76
2021/09/08 07:50:59;;;;;;;9.25;3.10;;;;;;;18.51;32.09;101393.52;1634127;85;21197;-76
2021/09/08 07:54:08;;;;;;;6.33;2.52;;;;;;;18.56;31.78;101388.76;1625749;86;21184;-75
2021/09/08 07:57:16;;;;;;;5.85;2.37;;;;;;;18.62;30.51;101382.39;1639027;86;21841;-76
2021/09/08 08:00:22;;;;;;;9.03;2.50;;;;;;;18.68;30.94;101376.06;1634152;85;21591;-76
2021/09/08 08:03:31;;;;;;;6.28;2.83;;;;;;;18.83;31.92;101377.34;1635902;85;21892;-76
2021/09/08 08:06:37;;;;;;;6.72;3.08;;;;;;;18.99;30.86;101367.82;1635482;85;22333;-75
2021/09/08 08:09:43;;;;;;;7.62;2.90;;;;;;;19.10;30.38;101364.45;1639073;85;21732;-77
2021/09/08 08:12:50;;;;;;;6.47;2.45;;;;;;;19.12;29.91;101374.28;1640509;85;21286;-77
2021/09/08 08:15:54;;;;;;;6.22;3.00;;;;;;;19.02;30.79;101373.81;1636830;85;21724;-78
2021/09/08 08:18:59;;;;;;;13.90;2.60;;;;;;;19.07;31.25;101367.12;1638522;86;21732;-76
2021/09/08 08:22:05;;;;;;;6.80;2.80;;;;;;;19.09;30.44;101360.82;1638707;85;21235;-77
2021/09/08 08:25:13;;;;;;;6.83;2.80;;;;;;;19.09;30.16;101364.12;1635176;85;21712;-75
2021/09/08 08:28:19;;;;;;;6.33;2.52;;;;;;;19.09;30.11;101364.98;1630883;86;21940;-75
2021/09/08 08:31:25;;;;;;;7.80;2.52;;;;;;;19.09;30.13;101367.75;1633508;86;21216;-77
2021/09/08 08:34:33;;;;;;;4.25;2.62;;;;;;;19.05;30.38;101365.06;1637131;85;21216;-77
2021/09/08 08:37:39;;;;;;;4.45;2.75;;;;;;;19.00;30.48;101363.44;1640430;85;21224;-77
2021/09/08 08:40:44;;;;;;;4.97;2.55;;;;;;;19.01;30.61;101362.41;1637781;85;22108;-77
2021/09/08 08:43:49;;;;;;;4.83;2.60;;;;;;;19.06;30.93;101358.48;1636934;85;21854;-75
2021/09/08 08:46:54;;;;;;;8.50;3.02;;;;;;;19.13;30.58;101354.34;1638611;86;21324;-75
2021/09/08 08:49:59;;;;;;;4.85;2.80;;;;;;;19.11;30.32;101357.86;1642157;85;21327;-80
2021/09/08 08:53:06;;;;;;;4.67;2.70;;;;;;;19.08;30.75;101356.88;1641003;86;21975;-79
2021/09/08 08:56:12;;;;;;;5.17;2.87;;;;;;;19.09;30.50;101351.11;1640562;85;21227;-75
2021/09/08 08:59:18;;;;;;;8.10;4.12;;;;;;;19.10;30.31;101349.20;1647113;86;21519;-75
2021/09/08 09:02:34;;;;;;;5.85;2.77;;;;;;;19.13;30.19;101339.09;1643620;85;21371;-75
2021/09/08 09:05:44;;;;;;;9.43;2.80;;;;;;;19.19;30.28;101338.78;1635395;85;21240;-80
2021/09/08 09:08:49;;;;;;;16.73;3.62;;;;;;;19.18;29.84;101338.46;1637826;85;21554;-81
2021/09/08 09:11:58;;;;;;;4.92;2.90;;;;;;;19.13;30.08;101335.78;1642379;85;21341;-79
2021/09/08 09:15:05;;;;;;;5.12;2.70;;;;;;;19.14;30.22;101329.70;1635988;85;21481;-75
2021/09/08 09:18:13;;;;;;;5.60;2.85;;;;;;;19.19;29.97;101313.82;1626356;85;21544;-76
2021/09/08 09:21:21;;;;;;;8.00;2.85;;;;;;;19.24;30.68;101314.05;1635540;86;21181;-75
2021/09/08 09:24:29;;;;;;;7.62;2.67;;;;;;;19.35;30.95;101316.23;1636740;85;21204;-75
2021/09/08 09:27:34;;;;;;;3.65;2.35;;;;;;;19.49;30.62;101311.03;1636059;85;21286;-75
2021/09/08 09:30:42;;;;;;;7.42;2.77;;;;;;;19.61;30.59;101301.56;1633445;86;21216;-76
2021/09/08 09:33:54;;;;;;;5.28;2.75;;;;;;;19.69;30.12;101306.91;1634582;86;21199;-75
2021/09/08 09:37:01;;;;;;;5.78;3.00;;;;;;;19.75;29.76;101302.43;1638338;85;21180;-75
2021/09/08 09:40:10;;;;;;;6.87;2.40;;;;;;;19.76;30.17;101301.36;1639229;85;21192;-75
2021/09/08 09:43:18;;;;;;;3.87;2.70;;;;;;;19.81;30.40;101295.52;1636858;85;21204;-75
2021/09/08 09:46:23;;;;;;;10.13;2.80;;;;;;;19.91;31.09;101295.08;1635479;85;21285;-76
2021/09/08 09:49:32;;;;;;;5.72;2.65;;;;;;;20.05;30.71;101301.48;1641280;86;21740;-76
2021/09/08 09:52:36;;;;;;;5.37;2.95;;;;;;;20.12;29.88;101283.72;1640162;86;21343;-75
2021/09/08 09:55:41;;;;;;;9.88;3.10;;;;;;;20.17;29.76;101285.31;1644728;86;21728;-75
2021/09/08 09:58:45;;;;;;;7.67;2.80;;;;;;;20.21;29.37;101277.95;1638814;86;21610;-75
2021/09/08 10:01:50;;;;;;;5.50;2.67;;;;;;;20.25;29.83;101280.63;1639591;86;21342;-75
2021/09/08 10:04:56;;;;;;;10.15;2.77;;;;;;;20.28;30.07;101278.78;1627107;85;21236;-75
2021/09/08 10:08:04;;;;;;;8.08;2.90;;;;;;;20.33;30.34;101276.23;1640034;85;21946;-74
2021/09/08 10:11:33;;;;;;;5.87;2.70;;;;;;;20.40;30.33;101265.94;1645846;84;21333;-76
2021/09/08 10:14:40;;;;;;;6.03;3.10;;;;;;;20.43;29.21;101271.07;1634629;85;21676;-81
2021/09/08 10:17:52;;;;;;;7.47;3.87;;;;;;;20.32;28.79;101261.99;1653285;84;21217;-75
2021/09/08 10:21:19;;;;;;;10.10;3.58;;;;;;;20.26;28.84;101268.43;1642812;86;21219;-76
2021/09/08 10:24:24;;;;;;;13.55;3.30;;;;;;;20.17;28.91;101270.04;1635596;85;21711;-76
2021/09/08 10:27:38;;;;;;;6.42;3.00;;;;;;;20.12;29.25;101258.73;1647645;84;21232;-77
2021/09/08 10:30:45;;;;;;;8.70;3.08;;;;;;;20.13;29.02;101260.43;1630787;86;21204;-75
2021/09/08 10:33:50;;;;;;;7.37;2.92;;;;;;;20.15;29.41;101256.06;1644538;84;21203;-77
2021/09/08 10:36:55;;;;;;;11.30;3.37;;;;;;;20.20;29.09;101256.81;1633820;85;21216;-77
2021/09/08 10:40:01;;;;;;;10.65;3.22;;;;;;;20.26;29.16;101253.16;1646064;84;21626;-78
2021/09/08 10:43:07;;;;;;;8.08;3.30;;;;;;;20.30;28.89;101247.48;1647308;84;21772;-76
2021/09/08 10:46:16;;;;;;;6.58;4.00;;;;;;;20.32;28.65;101246.72;1628959;86;21915;-77
2021/09/08 10:49:47;;;;;;;8.25;3.37;;;;;;;20.32;28.47;101243.40;1658803;84;21204;-78
2021/09/08 10:52:55;;;;;;;8.48;3.70;;;;;;;20.32;28.65;101239.23;1640367;85;22047;-77
2021/09/08 10:55:57;;;;;;;8.23;3.70;;;;;;;20.34;28.13;101232.09;1645684;86;21236;-77
2021/09/08 10:59:07;;;;;;;8.20;3.27;;;;;;;20.32;28.56;101245.33;1635032;85;21194;-77
2021/09/08 11:02:12;;;;;;;8.68;3.72;;;;;;;20.35;28.39;101237.95;1635640;85;21773;-78
2021/09/08 11:05:22;;;;;;;9.00;3.55;;;;;;;20.34;28.35;101226.53;1661545;84;21216;-78
2021/09/08 11:08:31;;;;;;;13.83;4.00;;;;;;;20.34;28.03;101225.99;1646149;84;21391;-78
2021/09/08 11:11:37;;;;;;;6.42;3.50;;;;;;;20.36;27.98;101232.71;1632247;85;21192;-79
2021/09/08 11:15:07;;;;;;;8.65;3.52;;;;;;;20.37;28.09;101214.96;1626491;86;21233;-76
2021/09/08 11:18:10;;;;;;;16.60;4.10;;;;;;;20.36;28.19;101211.33;1650183;84;21231;-77
2021/09/08 11:21:16;;;;;;;9.78;4.45;;;;;;;20.34;27.92;101221.83;1633722;86;21416;-76
2021/09/08 11:24:22;;;;;;;8.70;3.77;;;;;;;20.35;28.18;101208.78;1633794;85;21235;-77
2021/09/08 11:27:31;;;;;;;5.60;2.67;;;;;;;20.42;28.08;101205.46;1634996;85;21223;-77
2021/09/08 11:30:40;;;;;;;6.08;2.98;;;;;;;20.43;28.16;101209.94;1638450;85;21184;-78
2021/09/08 11:33:44;;;;;;;5.55;3.05;;;;;;;20.43;27.91;101199.67;1639588;85;21200;-81
2021/09/08 11:36:52;;;;;;;10.80;3.30;;;;;;;20.44;28.21;101196.36;1629835;86;21272;-80
2021/09/08 11:39:58;;;;;;;8.80;3.60;;;;;;;20.48;27.96;101200.44;1638351;85;21241;-80
2021/09/08 11:43:05;;;;;;;12.20;3.58;;;;;;;20.52;28.43;101202.25;1642709;85;21212;-81
2021/09/08 11:46:38;;;;;;;6.67;3.30;;;;;;;20.55;28.09;101194.30;1635797;86;21363;-81
2021/09/08 11:49:45;;;;;;;13.30;3.52;;;;;;;20.56;28.10;101201.59;1638423;85;21224;-80
2021/09/08 11:52:52;;;;;;;9.10;3.75;;;;;;;20.56;27.69;101196.03;1640144;85;21772;-81
2021/09/08 11:55:58;;;;;;;7.80;3.22;;;;;;;20.57;27.59;101188.54;1639762;85;21258;-79
2021/09/08 11:59:08;;;;;;;9.75;3.95;;;;;;;20.57;27.53;101191.31;1641618;85;21200;-81
2021/09/08 12:02:18;;;;;;;7.25;3.90;;;;;;;20.57;27.71;101181.05;1638695;85;21730;-79
2021/09/08 12:05:27;;;;;;;7.28;3.42;;;;;;;20.58;27.93;101183.29;1640014;85;21314;-82
2021/09/08 12:08:36;;;;;;;9.50;3.42;;;;;;;20.59;27.78;101180.28;1632112;85;21317;-81
2021/09/08 12:11:50;;;;;;;7.95;3.47;;;;;;;20.63;27.75;101177.92;1642075;85;21276;-80
2021/09/08 12:14:57;;;;;;;9.48;3.40;;;;;;;20.64;27.64;101178.23;1628564;86;21758;-78
2021/09/08 12:18:23;;;;;;;9.35;3.02;;;;;;;20.63;27.54;101174.59;1603489;87;21204;-79
2021/09/08 12:21:28;;;;;;;17.42;3.15;;;;;;;20.60;27.85;101173.64;1635135;85;22255;-81
2021/09/08 12:24:36;;;;;;;7.78;3.05;;;;;;;20.57;28.02;101167.16;1635880;86;21754;-83
2021/09/08 12:27:44;;;;;;;11.25;3.27;;;;;;;20.60;28.01;101163.91;1632676;86;21346;-82
2021/09/08 12:30:49;;;;;;;6.42;2.95;;;;;;;20.61;28.44;101155.91;1640912;85;21314;-80
2021/09/08 12:34:01;;;;;;;9.68;3.35;;;;;;;20.64;27.74;101161.01;1640668;85;21295;-80
2021/09/08 12:37:06;;;;;;;6.28;2.67;;;;;;;20.64;27.69;101158.77;1640592;85;21225;-81
2021/09/08 12:40:21;;;;;;;8.50;2.92;;;;;;;20.63;27.31;101154.30;1593975;86;21326;-81
2021/09/08 12:43:38;;;;;;;7.28;3.17;;;;;;;20.58;27.73;101154.95;1639300;86;21205;-82
2021/09/08 12:46:52;;;;;;;9.18;3.22;;;;;;;20.56;27.74;101144.61;1633071;87;21249;-81
2021/09/08 12:49:58;;;;;;;7.72;2.80;;;;;;;20.55;27.72;101154.00;1639852;85;21213;-82
2021/09/08 12:53:04;;;;;;;8.00;3.25;;;;;;;20.52;27.57;101144.73;1632080;85;21945;-83
2021/09/08 12:56:09;;;;;;;6.28;2.75;;;;;;;20.50;27.53;101144.09;1639238;85;21343;-81
2021/09/08 12:59:19;;;;;;;6.55;3.15;;;;;;;20.49;27.60;101139.61;1635974;85;21611;-83
2021/09/08 13:02:23;;;;;;;12.60;3.40;;;;;;;20.47;27.61;101141.77;1640730;85;21652;-80
2021/09/08 13:05:29;;;;;;;10.20;3.10;;;;;;;20.47;27.67;101141.77;1641171;85;21216;-79
2021/09/08 13:08:36;;;;;;;14.43;3.55;;;;;;;20.43;27.75;101132.14;1641143;87;21620;-81
2021/09/08 13:11:43;;;;;;;8.03;2.85;;;;;;;20.38;27.44;101131.95;1635628;86;21354;-82
2021/09/08 13:14:51;;;;;;;6.67;3.25;;;;;;;20.35;27.86;101128.22;1637535;85;21322;-82
2021/09/08 13:17:57;;;;;;;4.92;2.65;;;;;;;20.32;27.81;101124.48;1644912;85;21352;-83
2021/09/08 13:21:05;;;;;;;7.72;3.30;;;;;;;20.28;28.28;101123.21;1647514;86;21239;-84
2021/09/08 13:24:13;;;;;;;6.87;3.05;;;;;;;20.25;27.98;101120.36;1646798;86;21296;-83
2021/09/08 13:27:24;;;;;;;6.80;2.95;;;;;;;20.22;27.69;101120.78;1641825;86;21342;-76
2021/09/08 13:30:30;;;;;;;6.72;2.90;;;;;;;20.17;27.48;101120.05;1641422;87;21411;-77
2021/09/08 13:33:37;;;;;;;4.53;2.65;;;;;;;20.13;27.24;101117.39;1639139;86;21331;-77
2021/09/08 13:36:42;;;;;;;6.60;2.77;;;;;;;20.11;27.44;101115.39;1634913;86;21323;-77
2021/09/08 13:39:47;;;;;;;9.00;2.72;;;;;;;20.09;27.77;101113.38;1633102;86;21795;-76
2021/09/08 13:42:53;;;;;;;6.62;2.42;;;;;;;20.09;27.30;101111.99;1634199;86;21323;-77
2021/09/08 13:45:58;;;;;;;5.83;2.60;;;;;;;20.09;27.30;101114.77;1640476;87;21375;-76
2021/09/08 13:49:03;;;;;;;5.92;3.33;;;;;;;20.11;27.38;101111.22;1626639;85;21335;-76
2021/09/08 13:52:10;;;;;;;8.73;3.10;;;;;;;20.13;27.02;101113.77;1627135;85;21386;-77
2021/09/08 13:55:15;;;;;;;6.03;3.15;;;;;;;20.13;26.75;101103.52;1643039;85;21920;-77
2021/09/08 13:58:23;;;;;;;7.22;3.20;;;;;;;20.15;27.01;101110.25;1653388;87;21811;-77
2021/09/08 14:01:29;;;;;;;8.20;2.92;;;;;;;20.16;26.61;101106.40;1652442;87;21319;-76
2021/09/08 14:04:34;;;;;;;7.17;3.20;;;;;;;20.14;26.43;101102.46;1636936;85;21709;-77
2021/09/08 14:07:39;;;;;;;15.18;4.42;;;;;;;20.12;26.43;101104.59;1628037;87;21310;-77
2021/09/08 14:10:45;;;;;;;5.78;2.72;;;;;;;20.09;26.39;101096.72;1625627;85;21220;-76
2021/09/08 14:13:52;;;;;;;7.72;3.80;;;;;;;20.06;26.64;101099.08;1627070;87;21259;-77
2021/09/08 14:16:58;;;;;;;8.98;2.90;;;;;;;20.03;26.65;101098.97;1630458;88;21283;-77
2021/09/08 14:20:04;;;;;;;6.12;3.17;;;;;;;20.00;26.55;101095.26;1630408;86;21254;-77
2021/09/08 14:23:10;;;;;;;7.10;3.52;;;;;;;19.98;26.75;101099.31;1630627;86;21368;-76
2021/09/08 14:26:16;;;;;;;7.83;3.00;;;;;;;19.96;26.69;101094.53;1631878;86;21357;-77